createdAt,value
2023-05-15T00:03:16.266Z,95316.72
2023-05-15T00:08:18.237Z,95310.25
2023-05-15T00:13:19.724Z,95314.75
2023-05-15T00:18:21.291Z,95307.84
2023-05-15T00:23:22.809Z,95303.69
2023-05-15T00:28:24.717Z,95304.94
2023-05-15T00:33:26.268Z,95302.97
2023-05-15T00:38:27.802Z,95305.00
2023-05-15T00:43:30.203Z,95295.34
2023-05-15T00:48:32.946Z,95291.81
2023-05-15T00:53:35.185Z,95287.94
2023-05-15T00:58:38.626Z,95289.56
2023-05-15T01:03:40.451Z,95297.09
2023-05-15T01:08:47.721Z,95298.63
2023-05-15T01:13:49.359Z,95301.78
2023-05-15T01:18:50.909Z,95301.00
2023-05-15T01:24:04.593Z,95292.06
2023-05-15T01:29:19.182Z,95286.94
2023-05-15T01:34:27.304Z,95276.41
2023-05-15T01:39:32.242Z,95281.22
2023-05-15T01:44:40.228Z,95279.72
2023-05-15T01:49:44.899Z,95280.94
2023-05-15T01:54:50.097Z,95281.03
2023-05-15T01:59:51.980Z,95282.63
2023-05-15T02:04:54.375Z,95281.13
2023-05-15T02:09:57.081Z,95278.81
2023-05-15T02:14:59.680Z,95279.25
2023-05-15T02:20:01.261Z,95283.91
2023-05-15T02:25:03.086Z,95279.63
2023-05-15T02:30:47.009Z,95281.59
2023-05-15T02:36:03.670Z,95271.41
2023-05-15T02:41:07.517Z,95265.09
2023-05-15T02:46:10.586Z,95261.19
2023-05-15T02:51:12.194Z,95262.66
2023-05-15T02:56:13.784Z,95265.41
2023-05-15T03:01:15.955Z,95268.22
2023-05-15T03:06:18.605Z,95260.75
2023-05-15T03:11:21.348Z,95254.09
2023-05-15T03:16:22.938Z,95260.28
2023-05-15T03:21:24.568Z,95253.63
2023-05-15T03:26:26.071Z,95254.00
2023-05-15T03:31:27.678Z,95248.09
2023-05-15T03:36:29.238Z,95248.44
2023-05-15T03:41:30.734Z,95257.50
2023-05-15T03:46:34.590Z,95250.47
2023-05-15T03:51:37.363Z,95244.56
2023-05-15T03:56:38.940Z,95241.06
2023-05-15T04:01:47.525Z,95244.94
2023-05-15T04:06:57.147Z,95248.03
2023-05-15T04:11:58.611Z,95240.97
2023-05-15T04:17:00.105Z,95241.66
2023-05-15T04:22:01.838Z,95225.97
2023-05-15T04:27:03.731Z,95225.22
2023-05-15T04:32:05.414Z,95234.63
2023-05-15T04:37:07.172Z,95233.06
2023-05-15T04:42:08.640Z,95239.38
2023-05-15T04:47:11.466Z,95237.09
2023-05-15T04:52:12.946Z,95239.09
2023-05-15T04:57:14.429Z,95239.22
2023-05-15T05:02:15.915Z,95238.06
2023-05-15T05:07:17.419Z,95241.19
2023-05-15T05:12:18.985Z,95244.69
2023-05-15T05:17:20.508Z,95246.22
2023-05-15T05:22:22.064Z,95247.81
2023-05-15T05:27:23.550Z,95245.47
2023-05-15T05:32:25.180Z,95249.28
2023-05-15T05:37:26.797Z,95245.63
2023-05-15T05:42:28.378Z,95249.09
2023-05-15T05:47:30.006Z,95248.34
2023-05-15T05:52:31.502Z,95251.44
2023-05-15T05:57:33.073Z,95252.97
2023-05-15T06:02:34.760Z,95260.72
2023-05-15T06:07:36.472Z,95252.88
2023-05-15T06:12:37.941Z,95248.06
2023-05-15T06:17:39.622Z,95241.78
2023-05-15T06:22:41.147Z,95248.41
2023-05-15T06:27:42.966Z,95253.41
2023-05-15T06:32:44.537Z,95257.19
2023-05-15T06:37:50.163Z,95260.66
2023-05-15T06:42:51.634Z,95251.94
2023-05-15T06:47:53.291Z,95254.97
2023-05-15T06:52:54.796Z,95265.47
2023-05-15T06:57:56.328Z,95262.63
2023-05-15T07:02:57.847Z,95271.13
2023-05-15T07:07:59.360Z,95258.91
2023-05-15T07:13:00.842Z,95256.03
2023-05-15T07:18:02.475Z,95262.91
2023-05-15T07:23:05.128Z,95258.78
2023-05-15T07:28:06.619Z,95264.81
2023-05-15T07:33:08.118Z,95248.03
2023-05-15T07:38:09.750Z,95252.53
2023-05-15T07:43:11.229Z,95251.19
2023-05-15T07:48:20.230Z,95250.06
2023-05-15T07:53:21.791Z,95251.38
2023-05-15T07:58:23.296Z,95251.88
2023-05-15T08:03:24.946Z,95253.75
2023-05-15T08:08:26.661Z,95249.63
2023-05-15T08:13:28.814Z,95249.47
2023-05-15T08:18:30.453Z,95246.44
2023-05-15T08:23:31.925Z,95248.38
2023-05-15T08:28:33.574Z,95254.72
2023-05-15T08:33:35.074Z,95255.75
2023-05-15T08:38:36.632Z,95259.16
2023-05-15T08:43:41.360Z,95262.94
2023-05-15T08:48:44.008Z,95260.94
2023-05-15T08:53:46.031Z,95257.00
2023-05-15T08:58:47.786Z,95248.47
2023-05-15T09:03:49.335Z,95251.03
2023-05-15T09:08:55.371Z,95243.25
2023-05-15T09:14:00.875Z,95235.22
2023-05-15T09:19:03.113Z,95235.69
2023-05-15T09:24:24.892Z,95231.50
2023-05-15T09:29:27.618Z,95228.34
2023-05-15T09:34:31.556Z,95216.97
2023-05-15T09:39:34.036Z,95215.63
2023-05-15T09:44:35.676Z,95226.22
2023-05-15T09:49:37.531Z,95221.56
2023-05-15T09:54:40.625Z,95215.38
2023-05-15T09:59:49.503Z,95208.75
2023-05-15T10:04:56.352Z,95209.91
2023-05-15T10:09:58.601Z,95196.84
2023-05-15T10:15:01.538Z,95181.91
2023-05-15T10:20:07.040Z,95178.94
2023-05-15T10:25:44.140Z,95189.81
2023-05-15T10:30:46.749Z,95171.94
2023-05-15T10:35:49.095Z,95187.22
2023-05-15T10:40:57.667Z,95176.34
2023-05-15T10:46:05.285Z,95168.28
2023-05-15T10:51:35.984Z,95163.56
2023-05-15T10:56:38.853Z,95151.81
2023-05-15T11:01:41.153Z,95155.53
2023-05-15T11:06:45.418Z,95158.44
2023-05-15T11:11:52.890Z,95132.81
2023-05-15T11:16:54.554Z,95153.88
2023-05-15T11:22:04.027Z,95163.56
2023-05-15T11:27:05.585Z,95145.59
2023-05-15T11:32:38.860Z,95134.97
2023-05-15T11:37:53.813Z,95141.88
2023-05-15T11:43:18.332Z,95126.81
2023-05-15T11:48:20.203Z,95129.13
2023-05-15T11:53:24.095Z,95135.25
2023-05-15T11:58:26.382Z,95126.56
2023-05-15T12:03:33.998Z,95133.47
2023-05-15T12:08:37.661Z,95130.91
2023-05-15T12:13:39.297Z,95155.75
2023-05-15T12:18:40.915Z,95139.56
2023-05-15T12:24:03.527Z,95137.56
2023-05-15T12:29:09.388Z,95143.88
2023-05-15T12:34:11.271Z,95162.31
2023-05-15T12:39:12.895Z,95170.03
2023-05-15T12:44:18.163Z,95143.88
2023-05-15T12:49:22.972Z,95147.69
2023-05-15T12:54:24.505Z,95155.06
2023-05-15T12:59:26.168Z,95144.34
2023-05-15T13:04:27.911Z,95136.06
2023-05-15T13:09:29.581Z,95141.56
2023-05-15T13:14:34.602Z,95127.28
2023-05-15T13:19:36.140Z,95127.28
2023-05-15T13:24:37.690Z,95122.03
2023-05-15T13:29:39.162Z,95127.44
2023-05-15T13:34:40.731Z,95120.31
2023-05-15T13:39:42.272Z,95127.38
2023-05-15T13:44:43.793Z,95129.34
2023-05-15T13:49:46.231Z,95114.22
2023-05-15T13:54:47.772Z,95110.13
2023-05-15T13:59:49.691Z,95106.38
2023-05-15T14:04:51.311Z,95107.03
2023-05-15T14:09:52.787Z,95104.72
2023-05-15T14:14:54.469Z,95110.63
2023-05-15T14:19:56.194Z,95103.00
2023-05-15T14:24:57.784Z,95113.09
2023-05-15T14:29:59.315Z,95119.81
2023-05-15T14:35:01.487Z,95124.56
2023-05-15T14:40:04.800Z,95123.34
2023-05-15T14:45:06.849Z,95128.00
2023-05-15T14:50:08.453Z,95147.28
2023-05-15T14:55:10.677Z,95150.91
2023-05-15T15:00:13.321Z,95162.34
2023-05-15T15:05:15.016Z,95172.75
2023-05-15T15:10:16.575Z,95181.72
2023-05-15T15:15:18.913Z,95174.03
2023-05-15T15:20:21.510Z,95178.22
2023-05-15T15:25:23.625Z,95180.53
2023-05-15T15:30:25.300Z,95177.75
2023-05-15T15:35:27.072Z,95165.25
2023-05-15T15:40:29.779Z,95160.34
2023-05-15T15:45:31.498Z,95148.47
2023-05-15T15:50:33.115Z,95162.16
2023-05-15T15:55:34.726Z,95159.13
2023-05-15T16:00:37.056Z,95162.16
2023-05-15T16:05:38.549Z,95163.41
2023-05-15T16:10:40.765Z,95163.78
2023-05-15T16:15:42.230Z,95166.84
2023-05-15T16:20:43.844Z,95163.88
2023-05-15T16:25:45.388Z,95168.94
2023-05-15T16:30:49.723Z,95165.56
2023-05-15T16:35:52.533Z,95177.13
2023-05-15T16:40:54.054Z,95177.00
2023-05-15T16:45:55.627Z,95183.66
2023-05-15T16:50:57.139Z,95191.47
2023-05-15T16:55:58.676Z,95205.00
2023-05-15T17:01:00.211Z,95209.00
2023-05-15T17:06:01.870Z,95203.50
2023-05-15T17:11:03.935Z,95218.78
2023-05-15T17:16:05.916Z,95230.66
2023-05-15T17:21:07.549Z,95225.44
2023-05-15T17:26:09.087Z,95224.34
2023-05-15T17:31:11.151Z,95237.41
2023-05-15T17:36:13.681Z,95237.66
2023-05-15T17:41:15.276Z,95251.63
2023-05-15T17:46:16.961Z,95252.50
2023-05-15T17:51:18.867Z,95260.94
2023-05-15T17:56:21.419Z,95260.91
2023-05-15T18:01:23.061Z,95274.22
2023-05-15T18:06:24.628Z,95279.56
2023-05-15T18:11:27.087Z,95278.28
2023-05-15T18:16:29.720Z,95284.03
2023-05-15T18:21:31.529Z,95284.88
2023-05-15T18:26:33.077Z,95290.03
2023-05-15T18:31:34.723Z,95283.78
2023-05-15T18:36:36.319Z,95293.53
2023-05-15T18:41:38.102Z,95296.22
2023-05-15T18:46:39.664Z,95305.06
2023-05-15T18:51:41.486Z,95320.22
2023-05-15T18:56:43.354Z,95317.69
2023-05-15T19:01:46.324Z,95319.94
2023-05-15T19:06:50.799Z,95326.88
2023-05-15T19:11:52.516Z,95323.16
2023-05-15T19:16:54.361Z,95316.75
2023-05-15T19:21:55.950Z,95334.75
2023-05-15T19:26:57.463Z,95331.03
2023-05-15T19:31:59.220Z,95342.50
2023-05-15T19:37:01.175Z,95343.38
2023-05-15T19:42:02.748Z,95349.00
2023-05-15T19:47:04.319Z,95353.06
2023-05-15T19:52:06.121Z,95359.06
2023-05-15T19:57:07.684Z,95358.50
2023-05-15T20:02:11.092Z,95359.13
2023-05-15T20:07:12.941Z,95358.91
2023-05-15T20:12:14.529Z,95362.19
2023-05-15T20:17:16.918Z,95361.63
2023-05-15T20:22:18.662Z,95362.09
2023-05-15T20:27:20.279Z,95355.78
2023-05-15T20:32:21.902Z,95358.22
2023-05-15T20:37:31.020Z,95360.66
2023-05-15T20:42:32.623Z,95364.38
2023-05-15T20:47:34.325Z,95366.13
2023-05-15T20:52:35.872Z,95350.91
2023-05-15T20:57:37.352Z,95354.19
2023-05-15T21:02:39.666Z,95355.50
2023-05-15T21:07:41.314Z,95357.16
2023-05-15T21:12:42.865Z,95347.88
2023-05-15T21:17:44.430Z,95350.38
2023-05-15T21:22:45.966Z,95345.84
2023-05-15T21:27:47.525Z,95347.25
2023-05-15T21:32:49.068Z,95343.47
2023-05-15T21:37:50.813Z,95344.44
2023-05-15T21:42:52.648Z,95343.31
2023-05-15T21:47:54.478Z,95350.47
2023-05-15T21:52:56.039Z,95350.69
2023-05-15T21:57:57.574Z,95348.50
2023-05-15T22:02:59.242Z,95342.06
2023-05-15T22:08:01.128Z,95346.19
2023-05-15T22:13:03.429Z,95353.09
2023-05-15T22:18:08.181Z,95360.66
2023-05-15T22:23:10.541Z,95362.22
2023-05-15T22:28:12.151Z,95370.47
2023-05-15T22:33:13.863Z,95374.41
2023-05-15T22:38:15.768Z,95381.91
2023-05-15T22:43:17.354Z,95373.38
2023-05-15T22:48:19.034Z,95371.91
2023-05-15T22:53:20.598Z,95375.53
2023-05-15T22:58:22.077Z,95379.22
2023-05-15T23:03:23.730Z,95377.75
2023-05-15T23:08:25.374Z,95383.00
2023-05-15T23:13:27.028Z,95381.53
2023-05-15T23:18:28.551Z,95379.28
2023-05-15T23:23:30.113Z,95386.06
2023-05-15T23:28:31.690Z,95392.06
2023-05-15T23:33:34.151Z,95382.38
2023-05-15T23:38:35.673Z,95390.25
2023-05-15T23:43:37.186Z,95389.53
2023-05-15T23:48:38.924Z,95384.13
2023-05-15T23:53:41.054Z,95383.00
2023-05-15T23:58:42.603Z,95379.19
